createdAt,value
2022-09-25T07:23:31.521Z,101076.47
2022-09-25T07:26:11.547Z,101067.28
2022-09-25T07:28:48.418Z,101070.44
2022-09-25T07:31:27.924Z,101073.59
2022-09-25T07:34:09.721Z,101074.81
2022-09-25T07:36:47.962Z,101074.31
2022-09-25T07:39:27.424Z,101075.53
2022-09-25T07:42:04.617Z,101080.38
2022-09-25T07:44:46.049Z,101078.22
2022-09-25T07:47:25.339Z,101079.19
2022-09-25T07:50:03.271Z,101074.09
2022-09-25T07:52:41.629Z,101073.25
2022-09-25T07:55:21.641Z,101068.75
2022-09-25T07:58:01.424Z,101066.22
2022-09-25T08:00:38.323Z,101062.94
2022-09-25T08:03:17.028Z,101068.50
2022-09-25T08:06:02.410Z,101059.50
2022-09-25T08:08:41.791Z,101057.31
2022-09-25T08:11:23.709Z,101052.88
2022-09-25T08:14:01.178Z,101053.09
2022-09-25T08:16:38.226Z,101052.06
2022-09-25T08:19:18.125Z,101044.38
2022-09-25T08:21:54.833Z,101036.84
2022-09-25T08:24:32.822Z,101043.97
2022-09-25T08:27:12.419Z,101036.88
2022-09-25T08:29:49.799Z,101031.69
2022-09-25T08:32:26.510Z,101033.84
2022-09-25T08:35:04.074Z,101029.53
2022-09-25T08:37:45.632Z,101021.75
2022-09-25T08:40:31.182Z,101023.50
2022-09-25T08:43:13.334Z,101020.72
2022-09-25T08:46:04.423Z,101016.53
2022-09-25T08:49:10.256Z,101017.41
2022-09-25T08:51:53.142Z,101013.75
2022-09-25T08:54:32.937Z,101024.47
2022-09-25T08:57:31.751Z,101014.97
2022-09-25T09:00:21.988Z,101017.22
2022-09-25T09:03:02.712Z,101018.19
2022-09-25T09:05:50.891Z,101011.47
2022-09-25T09:08:32.535Z,101010.34
2022-09-25T09:11:15.601Z,101009.78
2022-09-25T09:13:56.483Z,101010.34
2022-09-25T09:16:44.563Z,101010.53
2022-09-25T09:19:21.822Z,101010.22
2022-09-25T09:22:12.896Z,101006.16
2022-09-25T09:25:05.131Z,101002.06
2022-09-25T09:28:05.440Z,100995.88
2022-09-25T09:30:52.244Z,101002.34
2022-09-25T09:33:55.464Z,100998.66
2022-09-25T09:36:48.334Z,101002.31
2022-09-25T09:39:33.744Z,100992.84
2022-09-25T09:42:21.035Z,100988.72
2022-09-25T09:45:09.472Z,100989.84
2022-09-25T09:47:52.749Z,100985.59
2022-09-25T09:50:49.825Z,100981.75
2022-09-25T09:53:37.327Z,100975.91
2022-09-25T09:56:18.613Z,100968.94
2022-09-25T09:59:00.508Z,100967.59
2022-09-25T10:01:45.589Z,100966.38
2022-09-25T10:04:29.656Z,100965.16
2022-09-25T10:07:18.756Z,100962.56
2022-09-25T10:09:58.973Z,100959.94
2022-09-25T10:12:40.778Z,100956.13
2022-09-25T10:15:29.740Z,100947.53
2022-09-25T10:18:09.565Z,100944.22
2022-09-25T10:20:53.322Z,100941.66
2022-09-25T10:23:43.189Z,100938.75
2022-09-25T10:26:33.538Z,100937.00
2022-09-25T10:29:31.070Z,100939.91
2022-09-25T10:32:09.391Z,100939.59
2022-09-25T10:34:55.561Z,100945.38
2022-09-25T10:37:37.992Z,100942.34
2022-09-25T10:40:32.613Z,100940.34
2022-09-25T10:43:21.019Z,100935.41
2022-09-25T10:46:37.151Z,100934.25
2022-09-25T10:49:33.923Z,100935.41
2022-09-25T10:52:18.494Z,100926.63
2022-09-25T10:55:16.509Z,100912.59
2022-09-25T10:58:10.109Z,100916.75
2022-09-25T11:01:01.215Z,100915.56
2022-09-25T11:03:42.398Z,100910.16
2022-09-25T11:06:27.907Z,100909.00
2022-09-25T11:09:20.099Z,100916.00
2022-09-25T11:12:10.078Z,100904.63
2022-09-25T11:14:58.906Z,100908.53
2022-09-25T11:17:47.101Z,100900.97
2022-09-25T11:20:30.937Z,100893.44
2022-09-25T11:23:32.766Z,100891.09
2022-09-25T11:26:15.994Z,100893.78
2022-09-25T11:29:01.600Z,100893.22
2022-09-25T11:31:46.252Z,100898.22
2022-09-25T11:34:46.187Z,100892.97
2022-09-25T11:37:30.212Z,100890.53
2022-09-25T11:40:39.948Z,100896.94
2022-09-25T11:43:35.634Z,100890.34
2022-09-25T11:46:27.183Z,100884.63
2022-09-25T11:49:18.596Z,100882.59
2022-09-25T11:52:48.144Z,100880.78
2022-09-25T11:55:56.554Z,100888.81
2022-09-25T11:58:57.725Z,100866.84
2022-09-25T12:01:42.065Z,100875.25
2022-09-25T12:05:00.735Z,100867.38
2022-09-25T12:08:06.125Z,100864.53
2022-09-25T12:10:58.636Z,100866.63
2022-09-25T12:13:49.891Z,100856.38
2022-09-25T12:16:41.220Z,100853.44
2022-09-25T12:19:39.892Z,100849.31
2022-09-25T12:22:29.308Z,100841.38
2022-09-25T12:25:16.431Z,100840.38
2022-09-25T12:28:01.520Z,100845.00
2022-09-25T12:30:48.820Z,100834.56
2022-09-25T12:33:35.811Z,100830.78
2022-09-25T12:36:23.074Z,100831.25
2022-09-25T12:39:28.560Z,100837.84
2022-09-25T12:42:17.281Z,100834.41
2022-09-25T12:45:00.847Z,100835.63
2022-09-25T12:47:46.722Z,100831.47
2022-09-25T12:50:32.715Z,100833.88
2022-09-25T12:53:33.972Z,100832.28
2022-09-25T12:56:19.759Z,100842.97
2022-09-25T12:59:07.872Z,100831.63
2022-09-25T13:01:56.334Z,100832.22
2022-09-25T13:04:52.448Z,100828.44
2022-09-25T13:07:38.534Z,100831.31
2022-09-25T13:10:30.725Z,100829.75
2022-09-25T13:13:17.810Z,100823.13
2022-09-25T13:16:02.001Z,100821.84
2022-09-25T13:18:42.012Z,100824.63
2022-09-25T13:21:40.429Z,100814.38
2022-09-25T13:24:22.961Z,100820.69
2022-09-25T13:27:07.461Z,100813.16
2022-09-25T13:29:45.914Z,100803.94
2022-09-25T13:32:29.450Z,100805.31
2022-09-25T13:35:26.834Z,100813.75
2022-09-25T13:38:42.797Z,100810.72
2022-09-25T13:41:24.378Z,100809.75
2022-09-25T13:45:07.990Z,100804.88
2022-09-25T13:48:07.895Z,100796.63
2022-09-25T13:50:52.858Z,100804.03
2022-09-25T13:53:53.002Z,100808.88
2022-09-25T13:56:49.962Z,100792.38
2022-09-25T13:59:43.380Z,100793.38
2022-09-25T14:02:46.703Z,100789.81
2022-09-25T14:05:32.662Z,100786.41
2022-09-25T14:08:14.799Z,100785.38
2022-09-25T14:10:56.320Z,100786.19
2022-09-25T14:13:40.012Z,100777.09
2022-09-25T14:16:28.520Z,100779.13
2022-09-25T14:19:08.992Z,100776.25
2022-09-25T14:21:51.512Z,100781.75
2022-09-25T14:24:32.313Z,100767.16
2022-09-25T14:27:28.235Z,100774.53
2022-09-25T14:30:15.158Z,100764.13
2022-09-25T14:33:23.532Z,100774.19
2022-09-25T14:36:13.872Z,100771.13
2022-09-25T14:39:17.783Z,100771.44
2022-09-25T14:42:29.472Z,100761.19
2022-09-25T14:45:39.521Z,100750.94
2022-09-25T14:48:21.921Z,100753.09
2022-09-25T14:51:03.982Z,100750.56
2022-09-25T14:53:47.265Z,100749.16
2022-09-25T14:56:34.671Z,100749.50
2022-09-25T14:59:15.812Z,100751.50
2022-09-25T15:01:56.028Z,100752.66
2022-09-25T15:04:36.127Z,100758.34
2022-09-25T15:07:21.191Z,100740.34
2022-09-25T15:10:01.672Z,100740.66
2022-09-25T15:12:49.734Z,100740.28
2022-09-25T15:15:29.572Z,100741.31
2022-09-25T15:18:05.315Z,100738.94
2022-09-25T15:20:50.631Z,100743.63
2022-09-25T15:23:30.601Z,100736.53
2022-09-25T15:26:20.469Z,100733.84
2022-09-25T15:29:04.623Z,100729.47
2022-09-25T15:31:47.222Z,100736.69
2022-09-25T15:34:28.080Z,100732.16
2022-09-25T15:37:26.682Z,100737.53
2022-09-25T15:40:29.025Z,100728.78
2022-09-25T15:43:06.892Z,100729.66
2022-09-25T15:46:22.322Z,100720.91
2022-09-25T15:49:03.867Z,100723.75
2022-09-25T15:51:41.683Z,100721.22
2022-09-25T15:54:36.219Z,100713.31
2022-09-25T15:57:19.782Z,100716.16
2022-09-25T16:00:12.327Z,100711.09
2022-09-25T16:03:14.726Z,100718.47
2022-09-25T16:05:55.402Z,100708.22
2022-09-25T16:08:36.988Z,100720.28
2022-09-25T16:11:25.008Z,100713.53
2022-09-25T16:14:29.718Z,100713.84
2022-09-25T16:17:18.831Z,100715.16
2022-09-25T16:20:31.227Z,100707.75
2022-09-25T16:23:22.168Z,100704.69
2022-09-25T16:26:00.837Z,100702.78
2022-09-25T16:28:40.328Z,100702.53
2022-09-25T16:31:17.621Z,100699.25
2022-09-25T16:33:58.126Z,100704.31
2022-09-25T16:36:48.858Z,100700.16
2022-09-25T16:39:32.760Z,100697.91
2022-09-25T16:42:36.006Z,100706.06
2022-09-25T16:45:24.160Z,100702.09
2022-09-25T16:48:32.709Z,100703.84
2022-09-25T16:51:14.425Z,100703.31
2022-09-25T16:53:55.653Z,100695.50
2022-09-25T16:56:35.810Z,100705.69
2022-09-25T16:59:22.575Z,100710.19
2022-09-25T17:02:04.985Z,100705.16
2022-09-25T17:04:45.069Z,100718.47
2022-09-25T17:07:22.841Z,100721.41
2022-09-25T17:10:03.104Z,100710.13
2022-09-25T17:12:40.447Z,100714.59
2022-09-25T17:15:31.521Z,100707.81
2022-09-25T17:18:20.165Z,100704.00
2022-09-25T17:21:00.221Z,100703.50
2022-09-25T17:23:39.175Z,100705.94
2022-09-25T17:26:24.271Z,100709.78
2022-09-25T17:29:01.127Z,100708.88
2022-09-25T17:31:39.849Z,100698.16
2022-09-25T17:34:24.808Z,100697.53
2022-09-25T17:37:02.488Z,100701.09
